createdAt,value
2019-01-18T00:02:13.221Z,6.00
2019-01-18T00:04:44.552Z,6.07
2019-01-18T00:07:15.870Z,5.93
2019-01-18T00:09:47.227Z,5.73
2019-01-18T00:12:18.525Z,4.90
2019-01-18T00:14:50.053Z,5.30
2019-01-18T00:17:21.848Z,4.83
2019-01-18T00:19:53.215Z,5.47
2019-01-18T00:22:24.515Z,5.20
2019-01-18T00:24:55.844Z,4.83
2019-01-18T00:27:29.355Z,5.23
2019-01-18T00:30:00.174Z,4.40
2019-01-18T00:32:31.462Z,6.03
2019-01-18T00:35:02.802Z,5.20
2019-01-18T00:37:34.177Z,4.57
2019-01-18T00:40:06.795Z,4.10
2019-01-18T00:42:38.131Z,5.43
2019-01-18T00:45:12.783Z,5.50
2019-01-18T00:47:44.159Z,5.00
2019-01-18T00:50:17.398Z,5.87
2019-01-18T00:52:48.841Z,5.13
2019-01-18T00:55:20.361Z,5.27
2019-01-18T00:57:51.696Z,4.87
2019-01-18T01:00:29.753Z,5.23
2019-01-18T01:03:01.164Z,5.30
2019-01-18T01:05:32.601Z,5.37
2019-01-18T01:08:03.918Z,5.60
2019-01-18T01:10:35.306Z,6.20
2019-01-18T01:13:06.745Z,4.93
2019-01-18T01:15:38.242Z,6.50
2019-01-18T01:18:09.825Z,5.60
2019-01-18T01:20:41.123Z,6.23
2019-01-18T01:23:12.487Z,5.57
2019-01-18T01:25:43.777Z,5.20
2019-01-18T01:28:15.112Z,5.10
2019-01-18T01:30:46.502Z,6.10
2019-01-18T01:33:17.800Z,5.97
2019-01-18T01:35:49.103Z,6.33
2019-01-18T01:38:20.408Z,5.30
2019-01-18T01:40:51.746Z,5.27
2019-01-18T01:43:23.034Z,5.83
2019-01-18T01:45:54.354Z,6.30
2019-01-18T01:48:25.662Z,5.13
2019-01-18T01:50:56.981Z,5.13
2019-01-18T01:53:28.379Z,5.37
2019-01-18T01:55:59.657Z,5.63
2019-01-18T01:58:31.008Z,5.80
2019-01-18T02:01:02.297Z,5.90
2019-01-18T02:03:33.794Z,5.47
2019-01-18T02:06:05.105Z,6.00
2019-01-18T02:08:36.448Z,5.50
2019-01-18T02:11:07.834Z,6.00
2019-01-18T02:13:39.177Z,7.43
2019-01-18T02:16:10.465Z,6.83
2019-01-18T02:18:41.791Z,7.50
2019-01-18T02:21:13.203Z,8.57
2019-01-18T02:23:44.465Z,8.17
2019-01-18T02:26:15.771Z,8.80
2019-01-18T02:28:47.057Z,7.50
2019-01-18T02:31:18.265Z,8.13
2019-01-18T02:33:52.754Z,7.57
2019-01-18T02:36:36.112Z,7.63
2019-01-18T02:39:10.740Z,7.30
2019-01-18T02:41:42.024Z,8.33
2019-01-18T02:44:13.282Z,7.07
2019-01-18T02:46:44.631Z,7.83
2019-01-18T02:49:15.896Z,6.50
2019-01-18T02:51:47.172Z,6.70
2019-01-18T02:54:18.502Z,6.40
2019-01-18T02:56:49.791Z,5.90
2019-01-18T02:59:21.057Z,5.10
2019-01-18T03:01:52.306Z,6.37
2019-01-18T03:04:29.483Z,5.30
2019-01-18T03:07:00.864Z,6.07
2019-01-18T03:09:32.135Z,6.00
2019-01-18T03:12:03.473Z,5.77
2019-01-18T03:14:34.743Z,6.80
2019-01-18T03:17:06.001Z,6.50
2019-01-18T03:19:37.294Z,6.10
2019-01-18T03:22:08.602Z,5.53
2019-01-18T03:24:39.862Z,5.47
2019-01-18T03:27:11.148Z,5.30
2019-01-18T03:29:42.402Z,6.10
2019-01-18T03:32:13.712Z,4.93
2019-01-18T03:34:44.940Z,5.30
2019-01-18T03:37:16.236Z,5.53
2019-01-18T03:39:47.430Z,3.90
2019-01-18T03:42:18.736Z,4.63
2019-01-18T03:44:49.980Z,4.00
2019-01-18T03:47:21.188Z,4.27
2019-01-18T03:49:52.436Z,4.80
2019-01-18T03:52:23.905Z,4.53
2019-01-18T03:54:55.151Z,4.30
2019-01-18T03:57:26.456Z,4.20
2019-01-18T03:59:57.783Z,3.63
2019-01-18T04:02:28.960Z,4.17
2019-01-18T04:05:00.313Z,4.07
2019-01-18T04:07:31.569Z,3.20
2019-01-18T04:10:02.835Z,3.77
2019-01-18T04:12:34.113Z,3.40
2019-01-18T04:15:07.297Z,3.30
2019-01-18T04:17:38.634Z,3.67
2019-01-18T04:20:12.325Z,3.47
2019-01-18T04:22:43.835Z,4.07
2019-01-18T04:25:21.984Z,4.77
2019-01-18T04:27:53.227Z,3.90
2019-01-18T04:30:25.039Z,5.13
2019-01-18T04:32:56.372Z,4.77
2019-01-18T04:35:27.643Z,4.47
2019-01-18T04:37:59.135Z,3.80
2019-01-18T04:40:30.709Z,4.20
2019-01-18T04:43:02.000Z,4.50
2019-01-18T04:45:33.239Z,3.93
2019-01-18T04:48:04.552Z,4.23
2019-01-18T04:50:35.807Z,4.10
2019-01-18T04:53:07.096Z,5.23
2019-01-18T04:55:38.269Z,4.80
2019-01-18T04:58:09.572Z,3.73
2019-01-18T05:00:41.676Z,5.80
2019-01-18T05:03:13.277Z,4.10
2019-01-18T05:05:44.674Z,4.87
2019-01-18T05:08:15.921Z,4.30
2019-01-18T05:10:47.220Z,4.60
2019-01-18T05:13:18.439Z,4.67
2019-01-18T05:15:49.768Z,5.00
2019-01-18T05:18:22.113Z,5.70
2019-01-18T05:20:53.474Z,5.83
2019-01-18T05:23:24.624Z,6.00
2019-01-18T05:25:55.964Z,6.80
2019-01-18T05:28:27.300Z,4.87
2019-01-18T05:30:58.673Z,7.00
2019-01-18T05:33:29.918Z,6.37
2019-01-18T05:36:01.266Z,6.37
2019-01-18T05:38:32.542Z,5.33
2019-01-18T05:41:03.845Z,5.73
2019-01-18T05:43:35.182Z,6.27
2019-01-18T05:46:06.511Z,5.47
2019-01-18T05:48:37.754Z,6.20
2019-01-18T05:51:08.995Z,7.50
2019-01-18T05:53:40.481Z,7.37
2019-01-18T05:56:11.768Z,6.80
2019-01-18T05:58:43.044Z,8.80
2019-01-18T06:01:15.215Z,8.70
2019-01-18T06:03:46.503Z,8.77
2019-01-18T06:06:17.880Z,8.67
2019-01-18T06:08:49.140Z,10.60
2019-01-18T06:11:21.774Z,9.17
2019-01-18T06:13:53.089Z,8.50
2019-01-18T06:16:23.134Z,9.50
2019-01-18T06:18:54.464Z,8.10
2019-01-18T06:21:25.818Z,9.37
2019-01-18T06:23:57.074Z,8.17
2019-01-18T06:26:28.409Z,9.37
2019-01-18T06:28:59.683Z,8.60
2019-01-18T06:31:31.025Z,10.37
2019-01-18T06:34:02.404Z,9.73
2019-01-18T06:36:33.673Z,8.87
2019-01-18T06:39:07.261Z,10.90
2019-01-18T06:41:47.478Z,9.43
2019-01-18T06:44:18.829Z,11.07
2019-01-18T06:46:50.040Z,10.03
2019-01-18T06:49:21.470Z,10.07
2019-01-18T06:51:52.757Z,8.90
2019-01-18T06:54:24.084Z,9.97
2019-01-18T06:56:55.524Z,10.53
2019-01-18T06:59:26.812Z,10.70
2019-01-18T07:01:58.188Z,9.53
2019-01-18T07:04:29.491Z,11.83
2019-01-18T07:07:00.896Z,10.77
2019-01-18T07:09:32.213Z,11.23
2019-01-18T07:12:03.487Z,12.63
2019-01-18T07:14:34.813Z,11.40
2019-01-18T07:17:06.089Z,10.07
2019-01-18T07:19:37.681Z,12.67
2019-01-18T07:22:08.993Z,11.13
2019-01-18T07:24:40.298Z,10.53
2019-01-18T07:27:11.576Z,10.53
2019-01-18T07:32:13.522Z,13.60
2019-01-18T07:34:44.794Z,13.47
2019-01-18T07:37:15.989Z,14.33
2019-01-18T07:39:47.485Z,13.97
2019-01-18T07:42:18.727Z,15.07
2019-01-18T07:44:50.059Z,13.87
2019-01-18T07:47:21.330Z,13.07
2019-01-18T07:49:52.667Z,12.80
2019-01-18T07:52:23.965Z,14.53
2019-01-18T07:54:55.284Z,13.10
2019-01-18T07:57:26.646Z,15.37
2019-01-18T07:59:57.920Z,14.73
2019-01-18T08:02:29.423Z,13.40
2019-01-18T08:05:00.756Z,14.90
2019-01-18T08:07:32.491Z,15.37
2019-01-18T08:10:04.001Z,16.30
2019-01-18T08:12:35.567Z,17.07
2019-01-18T08:15:09.514Z,20.20
2019-01-18T08:17:41.850Z,20.60
2019-01-18T08:20:17.778Z,24.27
2019-01-18T08:22:51.442Z,21.50
2019-01-18T08:25:23.575Z,23.47
2019-01-18T08:27:56.406Z,24.30
2019-01-18T08:30:30.627Z,25.57
2019-01-18T08:33:03.938Z,23.50
2019-01-18T08:35:35.737Z,27.67
2019-01-18T08:38:07.740Z,27.10
2019-01-18T08:40:43.768Z,24.80
2019-01-18T08:43:17.397Z,25.53
2019-01-18T08:45:55.335Z,27.40
2019-01-18T08:48:26.568Z,29.97
2019-01-18T08:50:57.868Z,27.80
2019-01-18T08:53:29.500Z,26.53
2019-01-18T08:56:00.954Z,31.10
2019-01-18T08:58:32.130Z,26.47
2019-01-18T09:01:03.494Z,26.20
2019-01-18T09:03:34.770Z,26.93
2019-01-18T09:06:06.244Z,38.40
2019-01-18T09:08:37.502Z,24.90
2019-01-18T09:11:08.778Z,27.67
2019-01-18T09:13:40.018Z,32.13
2019-01-18T09:16:11.304Z,31.43
2019-01-18T09:18:42.629Z,28.50
2019-01-18T09:21:13.902Z,31.40
2019-01-18T09:23:45.167Z,30.40
2019-01-18T09:26:16.356Z,27.70
2019-01-18T09:28:47.593Z,29.73
2019-01-18T09:31:18.971Z,33.90
2019-01-18T09:33:50.329Z,24.57
2019-01-18T09:36:21.570Z,26.40
2019-01-18T09:38:52.791Z,28.40
2019-01-18T09:41:24.062Z,31.10
2019-01-18T09:43:55.223Z,30.67
2019-01-18T09:46:26.574Z,35.17
2019-01-18T09:48:57.900Z,29.50
2019-01-18T09:54:00.542Z,29.10
2019-01-18T09:56:34.691Z,29.53
2019-01-18T09:59:06.009Z,28.40
2019-01-18T10:01:37.339Z,31.23
2019-01-18T10:04:08.923Z,26.10
2019-01-18T10:06:40.413Z,31.30
2019-01-18T10:09:12.072Z,30.10
2019-01-18T10:11:43.404Z,29.13
2019-01-18T10:14:14.720Z,30.90
2019-01-18T10:16:46.051Z,34.70
2019-01-18T10:19:17.453Z,29.13
2019-01-18T10:21:49.102Z,30.47
2019-01-18T10:24:21.096Z,30.00
2019-01-18T10:26:55.387Z,28.37
2019-01-18T10:29:35.779Z,33.87
2019-01-18T10:32:18.251Z,30.63
2019-01-18T10:34:55.685Z,29.33
2019-01-18T10:37:29.312Z,31.60
2019-01-18T10:40:04.725Z,30.40
2019-01-18T10:42:37.469Z,30.97
2019-01-18T10:45:11.746Z,31.10
2019-01-18T10:47:43.280Z,33.00
2019-01-18T10:50:26.909Z,30.87
2019-01-18T10:53:00.563Z,34.00
2019-01-18T10:55:31.933Z,33.23
2019-01-18T10:58:03.443Z,28.70
2019-01-18T11:00:40.085Z,32.53
2019-01-18T11:03:12.519Z,33.80
2019-01-18T11:05:50.975Z,33.80
2019-01-18T11:08:22.249Z,34.40
2019-01-18T11:10:53.924Z,37.13
2019-01-18T11:13:25.316Z,33.40
2019-01-18T11:15:56.575Z,34.80
2019-01-18T11:18:27.851Z,36.53
2019-01-18T11:21:11.788Z,35.33
2019-01-18T11:23:43.107Z,35.57
2019-01-18T11:26:14.375Z,30.40
2019-01-18T11:28:45.647Z,33.13
2019-01-18T11:31:16.938Z,35.10
2019-01-18T11:33:54.394Z,35.87
2019-01-18T11:36:25.647Z,34.20
2019-01-18T11:38:56.873Z,34.10
2019-01-18T11:41:29.105Z,33.90
2019-01-18T11:44:00.371Z,31.37
2019-01-18T11:46:41.096Z,34.10
2019-01-18T11:49:12.347Z,34.50
2019-01-18T11:51:43.595Z,33.40
2019-01-18T11:54:14.906Z,31.97
2019-01-18T11:56:46.152Z,31.43
2019-01-18T11:59:17.588Z,35.87
2019-01-18T12:01:48.808Z,32.40
2019-01-18T12:04:20.069Z,31.77
2019-01-18T12:06:51.304Z,32.83
2019-01-18T12:09:22.526Z,32.40
2019-01-18T12:11:53.779Z,32.30
2019-01-18T12:14:25.063Z,36.70
2019-01-18T12:16:59.175Z,35.60
2019-01-18T12:19:36.598Z,31.80
2019-01-18T12:22:08.098Z,28.30
2019-01-18T12:24:39.397Z,28.97
2019-01-18T12:27:10.819Z,29.40
2019-01-18T12:29:47.182Z,27.50
2019-01-18T12:32:28.614Z,30.23
2019-01-18T12:34:55.453Z,28.17
2019-01-18T12:37:26.771Z,29.60
2019-01-18T12:39:57.995Z,29.33
2019-01-18T12:42:29.335Z,29.27
2019-01-18T12:45:01.256Z,30.93
2019-01-18T12:47:32.815Z,31.97
2019-01-18T12:50:04.064Z,31.07
2019-01-18T12:52:35.403Z,29.10
2019-01-18T12:55:07.795Z,27.83
2019-01-18T12:57:39.124Z,27.83
2019-01-18T13:00:15.335Z,28.73
2019-01-18T13:02:46.969Z,28.20
2019-01-18T13:05:22.762Z,26.93
2019-01-18T13:07:55.322Z,30.77
2019-01-18T13:10:26.768Z,31.97
2019-01-18T13:12:58.052Z,28.67
2019-01-18T13:15:57.985Z,27.60
2019-01-18T13:18:29.315Z,27.47
2019-01-18T13:21:00.692Z,25.30
2019-01-18T13:23:32.028Z,26.10
2019-01-18T13:26:03.285Z,25.67
2019-01-18T13:28:34.478Z,27.10
2019-01-18T13:31:05.970Z,24.70
2019-01-18T13:33:37.301Z,24.97
2019-01-18T13:36:15.485Z,25.40
2019-01-18T13:38:47.152Z,28.07
2019-01-18T13:41:18.456Z,24.93
2019-01-18T13:43:49.755Z,22.43
2019-01-18T13:46:21.184Z,22.07
2019-01-18T13:48:54.903Z,19.40
2019-01-18T13:51:26.252Z,16.50
2019-01-18T13:53:57.606Z,17.00
2019-01-18T13:56:30.572Z,13.67
2019-01-18T13:59:01.970Z,12.47
2019-01-18T14:01:33.204Z,13.07
2019-01-18T14:04:04.591Z,12.87
2019-01-18T14:06:35.836Z,13.43
2019-01-18T14:09:10.420Z,12.40
2019-01-18T14:11:41.760Z,13.57
2019-01-18T14:14:13.118Z,11.63
2019-01-18T14:16:44.493Z,11.20
2019-01-18T14:19:16.063Z,10.17
2019-01-18T14:21:47.358Z,9.30
2019-01-18T14:24:18.601Z,10.57
2019-01-18T14:26:53.900Z,9.80
2019-01-18T14:29:25.311Z,6.77
2019-01-18T14:31:56.600Z,7.47
2019-01-18T14:34:27.890Z,7.70
2019-01-18T14:37:01.504Z,8.87
2019-01-18T14:39:32.878Z,8.63
2019-01-18T14:42:04.198Z,9.63
2019-01-18T14:44:35.466Z,10.17
2019-01-18T14:47:07.608Z,9.37
2019-01-18T14:49:38.942Z,8.87
2019-01-18T14:52:10.968Z,9.63
2019-01-18T14:54:42.205Z,9.30
2019-01-18T14:57:13.500Z,9.93
2019-01-18T14:59:44.910Z,9.60
2019-01-18T15:02:16.303Z,10.60
2019-01-18T15:04:48.438Z,9.37
2019-01-18T15:07:19.625Z,10.60
2019-01-18T15:09:52.380Z,10.73
2019-01-18T15:12:23.658Z,8.93
2019-01-18T15:14:54.925Z,8.23
2019-01-18T15:17:26.129Z,9.90
2019-01-18T15:20:02.742Z,9.40
2019-01-18T15:22:34.039Z,7.47
2019-01-18T15:25:05.733Z,8.83
2019-01-18T15:27:37.007Z,7.33
2019-01-18T15:30:10.946Z,7.50
2019-01-18T15:32:42.207Z,7.37
2019-01-18T15:35:17.188Z,7.97
2019-01-18T15:37:48.436Z,8.90
2019-01-18T15:40:25.933Z,7.50
2019-01-18T15:42:59.333Z,8.07
2019-01-18T15:45:30.553Z,9.23
2019-01-18T15:48:01.981Z,10.00
2019-01-18T15:50:38.867Z,10.00
2019-01-18T15:53:12.337Z,10.60
2019-01-18T15:55:43.667Z,11.30
2019-01-18T15:58:15.518Z,12.63
2019-01-18T16:00:47.144Z,12.10
2019-01-18T16:03:18.580Z,10.93
2019-01-18T16:05:49.817Z,14.60
2019-01-18T16:08:21.053Z,12.87
2019-01-18T16:10:52.339Z,13.93
2019-01-18T16:13:26.223Z,16.40
2019-01-18T16:16:24.314Z,14.07
2019-01-18T16:18:59.029Z,13.00
2019-01-18T16:21:30.448Z,14.10
2019-01-18T16:24:01.805Z,16.00
2019-01-18T16:26:33.056Z,17.00
2019-01-18T16:29:04.462Z,15.40
2019-01-18T16:31:35.804Z,16.17
2019-01-18T16:34:07.364Z,16.77
2019-01-18T16:36:38.710Z,17.23
2019-01-18T16:39:12.048Z,17.60
2019-01-18T16:41:43.682Z,17.73
2019-01-18T16:44:15.011Z,17.50
2019-01-18T16:46:46.328Z,16.40
2019-01-18T16:49:17.713Z,17.40
2019-01-18T16:51:48.990Z,19.10
2019-01-18T16:54:20.594Z,17.77
2019-01-18T16:56:51.879Z,18.00
2019-01-18T16:59:23.275Z,19.63
2019-01-18T17:01:54.731Z,18.47
2019-01-18T17:04:26.036Z,17.63
2019-01-18T17:06:57.323Z,19.00
2019-01-18T17:09:28.634Z,22.20
2019-01-18T17:11:59.877Z,19.53
2019-01-18T17:14:31.218Z,21.93
2019-01-18T17:17:02.645Z,17.20
2019-01-18T17:19:33.946Z,20.53
2019-01-18T17:22:05.230Z,20.83
2019-01-18T17:24:36.500Z,21.63
2019-01-18T17:27:07.799Z,20.33
2019-01-18T17:29:39.307Z,21.03
2019-01-18T17:32:10.593Z,20.70
2019-01-18T17:34:41.876Z,20.40
2019-01-18T17:37:30.497Z,20.20
2019-01-18T17:40:42.418Z,21.00
2019-01-18T17:44:09.556Z,20.33
2019-01-18T17:47:43.443Z,16.10
2019-01-18T17:51:01.732Z,16.60
2019-01-18T17:54:27.068Z,15.80
2019-01-18T17:57:55.775Z,15.37
2019-01-18T18:00:58.182Z,14.37
2019-01-18T18:04:31.268Z,17.57
2019-01-18T18:07:45.515Z,21.80
2019-01-18T18:11:11.115Z,18.70
2019-01-18T18:14:28.977Z,16.23
2019-01-18T18:18:20.937Z,16.50
2019-01-18T18:22:03.094Z,16.07
2019-01-18T18:25:00.432Z,17.07
2019-01-18T18:28:14.952Z,13.40
2019-01-18T18:31:46.333Z,13.57
2019-01-18T18:35:11.806Z,15.27
2019-01-18T18:38:51.886Z,14.63
2019-01-18T18:42:06.121Z,13.47
2019-01-18T18:45:40.108Z,14.47
2019-01-18T18:49:01.166Z,14.13
2019-01-18T18:52:34.028Z,14.83
2019-01-18T18:56:01.142Z,16.13
2019-01-18T18:59:18.485Z,15.70
2019-01-18T19:02:56.918Z,16.40
2019-01-18T19:06:42.868Z,20.33
2019-01-18T19:10:03.283Z,18.43
2019-01-18T19:13:54.921Z,19.50
2019-01-18T19:17:33.470Z,22.13
2019-01-18T19:21:13.362Z,17.43
2019-01-18T19:24:46.344Z,18.60
2019-01-18T19:28:06.282Z,21.87
2019-01-18T19:31:29.442Z,19.50
2019-01-18T19:35:01.909Z,20.97
2019-01-18T19:38:50.269Z,22.30
2019-01-18T19:42:28.902Z,19.80
2019-01-18T19:45:50.453Z,17.87
2019-01-18T19:49:14.646Z,17.60
2019-01-18T19:52:51.817Z,17.93
2019-01-18T19:56:21.012Z,18.83
2019-01-18T20:00:00.990Z,18.07
2019-01-18T20:03:04.579Z,17.37
2019-01-18T20:06:59.444Z,15.73
2019-01-18T20:10:05.467Z,17.73
2019-01-18T20:13:51.133Z,18.50
2019-01-18T20:17:15.687Z,18.57
2019-01-18T20:20:52.652Z,20.63
2019-01-18T20:24:18.107Z,16.37
2019-01-18T20:27:32.166Z,15.90
2019-01-18T20:30:54.444Z,18.27
2019-01-18T20:34:19.796Z,16.90
2019-01-18T20:37:34.300Z,17.63
2019-01-18T20:40:52.530Z,16.80
2019-01-18T20:44:32.881Z,17.20
2019-01-18T20:47:55.463Z,16.03
2019-01-18T20:51:26.986Z,19.57
2019-01-18T20:55:06.091Z,17.23
2019-01-18T20:58:19.380Z,17.30
2019-01-18T21:02:09.009Z,17.93
2019-01-18T21:05:24.920Z,18.70
2019-01-18T21:08:55.210Z,17.57
2019-01-18T21:12:00.979Z,17.77
2019-01-18T21:15:17.838Z,16.53
2019-01-18T21:18:34.838Z,16.40
2019-01-18T21:21:58.010Z,13.80
2019-01-18T21:25:12.401Z,14.80
2019-01-18T21:28:58.258Z,14.07
2019-01-18T21:32:28.771Z,16.67
2019-01-18T21:35:57.303Z,14.20
2019-01-18T21:39:55.434Z,13.33
2019-01-18T21:43:15.276Z,14.00
2019-01-18T21:46:20.200Z,14.67
2019-01-18T21:49:53.855Z,13.50
2019-01-18T21:53:25.174Z,14.20
2019-01-18T21:56:40.861Z,15.40
2019-01-18T21:59:53.355Z,13.30
2019-01-18T22:03:15.051Z,15.00
2019-01-18T22:06:42.411Z,13.33
2019-01-18T22:09:44.630Z,14.73
2019-01-18T22:13:06.272Z,13.90
2019-01-18T22:16:25.579Z,13.30
2019-01-18T22:20:13.774Z,12.80
2019-01-18T22:23:05.901Z,14.40
2019-01-18T22:26:50.536Z,13.47
2019-01-18T22:30:19.252Z,12.97
2019-01-18T22:33:26.312Z,14.40
2019-01-18T22:36:53.031Z,13.97
2019-01-18T22:40:25.030Z,13.27
2019-01-18T22:43:55.008Z,12.60
2019-01-18T22:47:40.089Z,13.73
2019-01-18T22:51:04.619Z,11.53
2019-01-18T22:54:18.368Z,16.73
2019-01-18T22:58:01.715Z,15.00
2019-01-18T23:01:53.115Z,13.17
2019-01-18T23:05:21.429Z,13.67
2019-01-18T23:08:41.588Z,15.37
2019-01-18T23:11:58.694Z,14.33
2019-01-18T23:15:38.989Z,14.30
2019-01-18T23:18:51.859Z,13.90
2019-01-18T23:22:18.155Z,15.60
2019-01-18T23:25:34.379Z,15.70
2019-01-18T23:28:59.086Z,15.07
2019-01-18T23:32:01.317Z,16.00
2019-01-18T23:35:03.158Z,17.03
2019-01-18T23:38:40.049Z,15.60
2019-01-18T23:42:11.091Z,17.00
2019-01-18T23:45:48.285Z,14.70
2019-01-18T23:49:08.431Z,13.17
2019-01-18T23:52:40.865Z,15.90
2019-01-18T23:56:21.292Z,13.87
2019-01-18T23:59:47.421Z,13.97
